Mosher, South Dakota
Current Conditions -  °F | °C
As of 6:53 PM on Monday 20 Oct 2014 (Local Time) from KICR Reporting Station
Clear Clear  
Wind Chill: 68°   Ceiling: Unl
Heat Index: 68°   Visibility: 10mi
Dew Point: 40°   Wind: 10mph
Humidity: 36%   Direction: 140°SE
Pressure: 29.98"   Gusts: NA
Location:  43.2923°N, 99.8934°W
Report Text: KICR 202353Z AUTO 14009KT 10SM CLR 20/04 A2998 RMK AO2 SLP151 T02000044 10256 20200 56009
Loading
Personal Weather Stations






























Interactive Weather Map
Tropical Storm Tracking
New forecast layout! Learn more

10-Day Weather Forecast

Advertisements
Track Severe Weather on mobile